Photo de Laille
https://tgftp.nws.noaa.gov/data/observations/metar/stations/LFRN.TXT2020/04/09 11:00 LFRN 091100Z AUTO 13008KT 070V170 CAVOK 22/10 Q1022
Rennes
Ciel dégagé
Metar : 2020/04/09 11:00 LFRN 091100Z AUTO 13008KT 070V170 CAVOK 22/10 Q1022
Couverture nuageuse :
Pression de 30.18 inHg (1022 hPa)
Humidité : 47%
Température : 72°F (22°C)
Vent de SE at 9 mph (15 km/h)
Visibilité : greater than 7 miles (10 km)
Nantes
Ciel dégagé
Metar : 2020/04/09 11:00 LFRS 091100Z AUTO 13009KT CAVOK 23/11 Q1021 NOSIG
Couverture nuageuse :
Traduc : Partly cloudy 700 ft
Pression de 30.15 inHg (1021 hPa)
Humidité : 47%
Température : 73°F (23°C)
Point de rosée : 52°F (11°C)
Vent de SE at 10 mph (17 km/h)
Visibilité : greater than 7 miles (10 km)
Lannion
partiellement nuageux
Metar : 2020/04/09 11:00 LFRO 091100Z AUTO 01006KT 340V060 6000 NSC 17/11 Q1022
Couverture nuageuse :
Traduc : Partly cloudy 700 ft
Pression de 30.18 inHg (1022 hPa)
Humidité : 68%
Température : 63°F (17°C)
Point de rosée : 52°F (11°C)
Vent de N at 7 mph (11 km/h)
Visibilité : 4 miles (6 km)
Dinard
Ciel dégagé
Metar : 2020/04/09 11:00 LFRD 091100Z AUTO 11005KT 030V200 CAVOK 21/13 Q1022
Couverture nuageuse :
Traduc : Partly cloudy 700 ft
Pression de 30.18 inHg (1022 hPa)
Humidité : 60%
Température : 70°F (21°C)
Point de rosée : 55°F (13°C)
Vent de ESE at 6 mph (9 km/h)
Visibilité : greater than 7 miles (10 km)
Brest
Ciel dégagé
Metar : 2020/04/09 11:00 LFRB 091100Z AUTO 05006KT 020V080 CAVOK 22/12 Q1021 NOSIG
Couverture nuageuse :
Traduc : Partly cloudy 700 ft
Pression de 30.15 inHg (1021 hPa)
Humidité : 53%
Température : 72°F (22°C)
Point de rosée : 54°F (12°C)
Vent de NE at 7 mph (11 km/h)
Visibilité : greater than 7 miles (10 km)
Quimper
Ciel dégagé
Metar : 2020/04/09 11:00 LFRQ 091100Z AUTO 13004KT 060V180 CAVOK 22/09 Q1021
Couverture nuageuse :
Traduc : Partly cloudy 700 ft
Pression de 30.15 inHg (1021 hPa)
Humidité : 44%
Température : 72°F (22°C)
Point de rosée : 48°F (9°C)
Vent de SE at 5 mph (7 km/h)
Visibilité : greater than 7 miles (10 km)
St Nazaire
Ciel dégagé
Metar : 2020/04/09 11:00 LFRZ 091100Z AUTO 11006KT 070V150 CAVOK 22/11 Q1021
Couverture nuageuse :
Traduc : Partly cloudy 700 ft
Pression de 30.15 inHg (1021 hPa)
Humidité : 50%
Température : 72°F (22°C)
Point de rosée : 52°F (11°C)
Vent de ESE at 7 mph (11 km/h)
Visibilité : greater than 7 miles (10 km)
St Brieuc
Ciel dégagé
Metar : 2020/04/09 11:00 LFRT 091100Z AUTO 08006KT 050V140 CAVOK 20/11 Q1022
Couverture nuageuse :
Traduc : Partly cloudy 700 ft
Pression de 30.18 inHg (1022 hPa)
Humidité : 56%
Température : 68°F (20°C)
Point de rosée : 52°F (11°C)
Vent de E at 7 mph (11 km/h)
Visibilité : greater than 7 miles (10 km)
Lorient
Ciel dégagé
Metar : 2020/04/09 11:00 LFRH 091100Z AUTO 15006KT 110V190 CAVOK 19/12 Q1021 NOSIG
Couverture nuageuse :
Traduc : Partly cloudy 700 ft
Pression de 30.15 inHg (1021 hPa)
Humidité : 64%
Température : 66°F (19°C)
Point de rosée : 54°F (12°C)
Vent de SSE at 7 mph (11 km/h)
Visibilité : greater than 7 miles (10 km)
Vannes-Meucon
Ciel dégagé
Metar : 2020/04/09 11:00 LFRV 091100Z AUTO 14006KT 100V200 CAVOK 21/13 Q1021
Couverture nuageuse :
Traduc : Partly cloudy 700 ft
Pression de 30.15 inHg (1021 hPa)
Humidité : 60%
Température : 70°F (21°C)
Point de rosée : 55°F (13°C)
Vent de SE at 7 mph (11 km/h)
Visibilité : greater than 7 miles (10 km)

 


   Weather Underground PWS IBRETAGN39      Weather Underground PWS IBRETAGN39Retour Météo-Laillé adhérent de Météo-Bretagne et d'Infoclimat. Données mises à jour en temps réel via Météolink Climatologie réalisée sous Wswin et GraphWeather.

Affichage prévisions météo de WeatherUnderground via script PHP de Saratoga.

Copyright 2012-2018